createdAt,value
2023-12-30T00:00:22.706Z,4.26
2023-12-30T00:02:49.612Z,4.28
2023-12-30T00:05:17.288Z,4.24
2023-12-30T00:07:45.469Z,4.24
2023-12-30T00:10:11.955Z,4.24
2023-12-30T00:12:38.469Z,4.21
2023-12-30T00:15:05.478Z,4.15
2023-12-30T00:17:32.140Z,4.12
2023-12-30T00:19:59.030Z,4.10
2023-12-30T00:22:25.702Z,4.09
2023-12-30T00:24:52.188Z,4.07
2023-12-30T00:27:19.006Z,4.03
2023-12-30T00:29:45.737Z,3.97
2023-12-30T00:32:12.249Z,3.97
2023-12-30T00:34:39.115Z,3.96
2023-12-30T00:37:05.713Z,3.95
2023-12-30T00:39:32.227Z,3.97
2023-12-30T00:41:58.682Z,4.04
2023-12-30T00:44:25.273Z,4.02
2023-12-30T00:46:51.901Z,4.04
2023-12-30T00:49:18.423Z,4.01
2023-12-30T00:51:44.878Z,4.00
2023-12-30T00:54:11.798Z,4.01
2023-12-30T00:56:38.320Z,3.99
2023-12-30T00:59:04.773Z,3.97
2023-12-30T01:01:31.266Z,4.00
2023-12-30T01:03:57.801Z,3.98
2023-12-30T01:06:24.306Z,3.95
2023-12-30T01:08:50.772Z,3.93
2023-12-30T01:11:17.231Z,3.90
2023-12-30T01:13:43.704Z,3.90
2023-12-30T01:16:10.171Z,3.86
2023-12-30T01:18:36.830Z,3.82
2023-12-30T01:21:04.811Z,3.80
2023-12-30T01:23:31.249Z,3.75
2023-12-30T01:25:57.765Z,3.76
2023-12-30T01:28:24.284Z,3.75
2023-12-30T01:30:50.884Z,3.74
2023-12-30T01:33:17.559Z,3.71
2023-12-30T01:35:44.117Z,3.71
2023-12-30T01:38:10.966Z,3.67
2023-12-30T01:40:37.432Z,3.65
2023-12-30T01:43:06.052Z,3.64
2023-12-30T01:45:32.760Z,3.61
2023-12-30T01:47:59.943Z,3.65
2023-12-30T01:50:27.323Z,3.64
2023-12-30T01:52:54.280Z,3.65
2023-12-30T01:55:21.000Z,3.74
2023-12-30T01:57:47.645Z,3.76
2023-12-30T02:00:23.824Z,3.79
2023-12-30T02:02:51.335Z,3.80
2023-12-30T02:05:18.802Z,3.81
2023-12-30T02:07:47.084Z,3.84
2023-12-30T02:10:14.248Z,3.84
2023-12-30T02:12:41.130Z,3.82
2023-12-30T02:15:15.016Z,3.81
2023-12-30T02:17:42.290Z,3.82
2023-12-30T02:20:09.426Z,3.81
2023-12-30T02:22:35.968Z,3.77
2023-12-30T02:25:03.521Z,3.73
2023-12-30T02:27:29.985Z,3.71
2023-12-30T02:29:56.595Z,3.70
2023-12-30T02:32:23.003Z,3.68
2023-12-30T02:34:49.460Z,3.69
2023-12-30T02:37:16.045Z,3.71
2023-12-30T02:39:42.507Z,3.72
2023-12-30T02:42:08.938Z,3.74
2023-12-30T02:44:35.576Z,3.79
2023-12-30T02:47:01.968Z,3.82
2023-12-30T02:49:28.894Z,3.83
2023-12-30T02:51:55.553Z,3.87
2023-12-30T02:54:22.003Z,3.89
2023-12-30T02:56:48.570Z,3.95
2023-12-30T02:59:14.984Z,4.00
2023-12-30T03:01:41.586Z,4.05
2023-12-30T03:04:08.207Z,4.08
2023-12-30T03:06:34.830Z,4.13
2023-12-30T03:09:01.251Z,4.15
2023-12-30T03:11:27.689Z,4.17
2023-12-30T03:13:54.403Z,4.21
2023-12-30T03:16:20.891Z,4.25
2023-12-30T03:18:47.705Z,4.24
2023-12-30T03:21:15.881Z,4.24
2023-12-30T03:23:42.336Z,4.24
2023-12-30T03:26:10.329Z,4.23
2023-12-30T03:28:37.797Z,4.22
2023-12-30T03:31:05.163Z,4.22
2023-12-30T03:33:31.764Z,4.22
2023-12-30T03:35:58.275Z,4.21
2023-12-30T03:38:24.960Z,4.20
2023-12-30T03:40:51.834Z,4.21
2023-12-30T03:43:18.343Z,4.18
2023-12-30T03:45:44.862Z,4.18
2023-12-30T03:48:11.512Z,4.19
2023-12-30T03:50:38.309Z,4.19
2023-12-30T03:53:06.086Z,4.17
2023-12-30T03:55:32.615Z,4.17
2023-12-30T03:57:59.233Z,4.16
2023-12-30T04:00:25.783Z,4.16
2023-12-30T04:02:52.356Z,4.15
2023-12-30T04:05:19.105Z,4.15
2023-12-30T04:07:46.232Z,4.15
2023-12-30T04:10:14.324Z,4.14
2023-12-30T04:12:40.885Z,4.14
2023-12-30T04:15:08.190Z,4.11
2023-12-30T04:17:35.171Z,4.09
2023-12-30T04:20:01.947Z,4.11
2023-12-30T04:22:30.031Z,4.16
2023-12-30T04:25:00.913Z,4.18
2023-12-30T04:27:27.691Z,4.20
2023-12-30T04:29:54.164Z,4.22
2023-12-30T04:32:23.833Z,4.21
2023-12-30T04:34:50.848Z,4.20
2023-12-30T04:37:18.613Z,4.22
2023-12-30T04:39:45.167Z,4.28
2023-12-30T04:42:13.672Z,4.31
2023-12-30T04:44:40.209Z,4.34
2023-12-30T04:47:07.470Z,4.37
2023-12-30T04:49:34.509Z,4.38
2023-12-30T04:52:01.644Z,4.39
2023-12-30T04:54:28.163Z,4.47
2023-12-30T04:56:54.607Z,4.57
2023-12-30T04:59:21.545Z,4.71
2023-12-30T05:01:48.419Z,4.80
2023-12-30T05:04:15.018Z,4.88
2023-12-30T05:06:41.434Z,4.87
2023-12-30T05:09:07.988Z,4.86
2023-12-30T05:11:35.019Z,4.84
2023-12-30T05:14:02.200Z,4.83
2023-12-30T05:16:29.053Z,4.81
2023-12-30T05:18:55.637Z,4.80
2023-12-30T05:21:22.097Z,4.86
2023-12-30T05:23:48.531Z,4.88
2023-12-30T05:26:15.064Z,4.98
2023-12-30T05:28:41.655Z,5.01
2023-12-30T05:31:08.509Z,5.06
2023-12-30T05:33:35.168Z,5.17
2023-12-30T05:36:01.759Z,5.17
2023-12-30T05:38:28.477Z,5.14
2023-12-30T05:40:54.984Z,5.13
2023-12-30T05:43:23.042Z,5.15
2023-12-30T05:45:50.590Z,5.11
2023-12-30T05:48:17.593Z,5.11
2023-12-30T05:50:44.411Z,5.10
2023-12-30T05:53:12.203Z,5.13
2023-12-30T05:55:41.860Z,5.14
2023-12-30T05:58:08.537Z,5.11
2023-12-30T06:00:35.015Z,5.09
2023-12-30T06:03:01.692Z,5.09
2023-12-30T06:05:28.347Z,5.12
2023-12-30T06:07:55.002Z,5.12
2023-12-30T06:10:21.603Z,5.07
2023-12-30T06:12:48.118Z,5.05
2023-12-30T06:15:14.617Z,5.00
2023-12-30T06:17:41.722Z,4.96
2023-12-30T06:20:10.907Z,4.92
2023-12-30T06:22:37.633Z,4.86
2023-12-30T06:25:05.159Z,4.88
2023-12-30T06:27:31.827Z,4.85
2023-12-30T06:29:58.461Z,4.83
2023-12-30T06:32:25.040Z,4.79
2023-12-30T06:34:51.775Z,4.77
2023-12-30T06:37:18.229Z,4.79
2023-12-30T06:39:46.167Z,4.81
2023-12-30T06:42:12.628Z,4.79
2023-12-30T06:44:39.346Z,4.76
2023-12-30T06:47:06.477Z,4.73
2023-12-30T06:49:33.157Z,4.73
2023-12-30T06:51:59.756Z,4.70
2023-12-30T06:54:27.043Z,4.66
2023-12-30T06:56:54.768Z,4.65
2023-12-30T06:59:21.528Z,4.60
2023-12-30T07:01:47.948Z,4.56
2023-12-30T07:04:15.462Z,4.50
2023-12-30T07:06:42.447Z,4.46
2023-12-30T07:09:08.922Z,4.39
2023-12-30T07:11:35.453Z,4.38
2023-12-30T07:14:01.926Z,4.38
2023-12-30T07:16:28.464Z,4.42
2023-12-30T07:18:55.218Z,4.53
2023-12-30T07:21:21.847Z,4.53
2023-12-30T07:23:48.571Z,4.57
2023-12-30T07:26:15.087Z,4.70
2023-12-30T07:28:41.614Z,4.76
2023-12-30T07:31:08.159Z,4.77
2023-12-30T07:33:36.726Z,4.81
2023-12-30T07:36:05.328Z,4.84
2023-12-30T07:38:32.092Z,4.84
2023-12-30T07:40:58.492Z,4.93
2023-12-30T07:43:25.662Z,4.94
2023-12-30T07:45:52.435Z,4.93
2023-12-30T07:48:19.017Z,4.94
2023-12-30T07:50:45.544Z,4.93
2023-12-30T07:53:12.038Z,4.99
2023-12-30T07:55:38.632Z,4.96
2023-12-30T07:58:05.172Z,4.96
2023-12-30T08:00:31.717Z,4.96
2023-12-30T08:02:58.315Z,4.98
2023-12-30T08:05:25.181Z,5.00
2023-12-30T08:07:51.649Z,5.00
2023-12-30T08:10:19.522Z,5.04
2023-12-30T08:12:47.113Z,5.08
2023-12-30T08:15:14.006Z,5.10
2023-12-30T08:17:40.632Z,5.16
2023-12-30T08:20:07.671Z,5.21
2023-12-30T08:22:34.522Z,5.24
2023-12-30T08:25:01.081Z,5.26
2023-12-30T08:27:27.636Z,5.34
2023-12-30T08:29:54.044Z,5.36
2023-12-30T08:32:20.820Z,5.38
2023-12-30T08:34:47.227Z,5.43
2023-12-30T08:37:13.835Z,5.51
2023-12-30T08:39:40.346Z,5.50
2023-12-30T08:42:07.211Z,5.53
2023-12-30T08:44:34.262Z,5.57
2023-12-30T08:47:00.965Z,5.62
2023-12-30T08:49:27.547Z,5.68
2023-12-30T08:51:54.669Z,5.71
2023-12-30T08:54:21.288Z,5.76
2023-12-30T08:56:48.652Z,5.78
2023-12-30T08:59:15.186Z,5.78
2023-12-30T09:01:41.965Z,5.83
2023-12-30T09:04:08.509Z,5.87
2023-12-30T09:06:35.205Z,5.89
2023-12-30T09:09:01.771Z,5.98
2023-12-30T09:11:28.429Z,6.01
2023-12-30T09:13:54.995Z,6.03
2023-12-30T09:16:21.792Z,6.08
2023-12-30T09:18:48.601Z,6.21
2023-12-30T09:21:15.405Z,6.32
2023-12-30T09:23:42.210Z,6.43
2023-12-30T09:26:09.036Z,6.45
2023-12-30T09:28:36.135Z,6.50
2023-12-30T09:31:03.083Z,6.51
2023-12-30T09:33:29.891Z,6.52
2023-12-30T09:35:57.081Z,6.56
2023-12-30T09:38:25.669Z,6.54
2023-12-30T09:40:53.952Z,6.57
2023-12-30T09:43:29.267Z,6.60
2023-12-30T09:45:58.158Z,6.61
2023-12-30T09:48:27.584Z,6.64
2023-12-30T09:50:56.262Z,6.73
2023-12-30T09:53:23.455Z,6.77
2023-12-30T09:55:53.874Z,6.83
2023-12-30T09:58:22.025Z,6.85
2023-12-30T10:00:48.817Z,6.91
2023-12-30T10:03:16.643Z,6.92
2023-12-30T10:05:43.538Z,6.94
2023-12-30T10:08:11.012Z,6.99
2023-12-30T10:10:48.285Z,7.03
2023-12-30T10:13:18.392Z,7.01
2023-12-30T10:15:44.890Z,7.03
2023-12-30T10:18:11.844Z,7.07
2023-12-30T10:20:40.533Z,7.08
2023-12-30T10:23:07.661Z,7.11
2023-12-30T10:25:35.448Z,7.16
2023-12-30T10:28:03.012Z,7.20
2023-12-30T10:30:32.767Z,7.24
2023-12-30T10:33:13.063Z,7.29
2023-12-30T10:35:40.814Z,7.33
2023-12-30T10:38:09.374Z,7.37
2023-12-30T10:40:36.271Z,7.40
2023-12-30T10:43:03.837Z,7.42
2023-12-30T10:45:31.708Z,7.44
2023-12-30T10:48:00.818Z,7.42
2023-12-30T10:50:27.604Z,7.42
2023-12-30T10:53:08.409Z,7.46
2023-12-30T10:55:36.474Z,7.48
2023-12-30T10:58:07.383Z,7.48
2023-12-30T11:00:37.209Z,7.52
2023-12-30T11:03:07.136Z,7.53
2023-12-30T11:05:45.053Z,7.55
2023-12-30T11:08:12.617Z,7.62
2023-12-30T11:10:39.620Z,7.64
2023-12-30T11:13:07.712Z,7.64
2023-12-30T11:15:34.901Z,7.62
2023-12-30T11:18:02.797Z,7.61
2023-12-30T11:20:31.635Z,7.57
2023-12-30T11:23:01.123Z,7.56
2023-12-30T11:25:39.287Z,7.50
2023-12-30T11:28:23.408Z,7.50
2023-12-30T11:30:58.633Z,7.47
2023-12-30T11:33:25.517Z,7.40
2023-12-30T11:35:56.991Z,7.30
2023-12-30T11:38:25.674Z,7.25
2023-12-30T11:40:54.464Z,7.15
2023-12-30T11:43:22.402Z,7.06
2023-12-30T11:45:49.568Z,7.00
2023-12-30T11:48:16.783Z,6.92
2023-12-30T11:50:43.397Z,6.91
2023-12-30T11:53:10.040Z,6.88
2023-12-30T11:55:44.513Z,6.87
2023-12-30T11:58:11.547Z,6.88
2023-12-30T12:00:38.790Z,6.89
2023-12-30T12:03:05.696Z,6.88
2023-12-30T12:05:34.513Z,6.89
2023-12-30T12:08:01.000Z,6.89
2023-12-30T12:10:27.629Z,6.90
2023-12-30T12:12:54.136Z,6.93
2023-12-30T12:15:20.631Z,6.92
2023-12-30T12:17:50.607Z,6.91
2023-12-30T12:20:20.584Z,6.95
2023-12-30T12:22:54.335Z,6.99
2023-12-30T12:25:20.810Z,7.03
2023-12-30T12:27:49.532Z,7.05
2023-12-30T12:30:16.925Z,7.11
2023-12-30T12:32:43.533Z,7.15
2023-12-30T12:35:10.021Z,7.22
2023-12-30T12:37:37.036Z,7.26
2023-12-30T12:40:05.841Z,7.35
2023-12-30T12:42:32.397Z,7.40
2023-12-30T12:44:58.905Z,7.45
2023-12-30T12:47:25.832Z,7.45
2023-12-30T12:49:52.529Z,7.46
2023-12-30T12:52:19.279Z,7.46
2023-12-30T12:54:45.964Z,7.49
2023-12-30T12:57:12.531Z,7.52
2023-12-30T12:59:40.121Z,7.51
2023-12-30T13:02:09.754Z,7.52
2023-12-30T13:04:36.649Z,7.52
2023-12-30T13:07:03.228Z,7.53
2023-12-30T13:09:37.143Z,7.52
2023-12-30T13:12:04.809Z,7.54
2023-12-30T13:14:32.233Z,7.56
2023-12-30T13:16:59.050Z,7.64
2023-12-30T13:19:25.983Z,7.67
2023-12-30T13:21:53.719Z,7.71
2023-12-30T13:24:20.794Z,7.72
2023-12-30T13:26:47.778Z,7.69
2023-12-30T13:29:15.176Z,7.75
2023-12-30T13:31:44.869Z,7.80
2023-12-30T13:34:13.327Z,7.89
2023-12-30T13:36:41.158Z,7.98
2023-12-30T13:39:07.715Z,8.03
2023-12-30T13:41:37.220Z,8.03
2023-12-30T13:44:05.243Z,8.05
2023-12-30T13:46:33.276Z,8.07
2023-12-30T13:49:11.811Z,8.02
2023-12-30T13:51:48.118Z,7.99
2023-12-30T13:54:20.707Z,7.97
2023-12-30T13:56:50.572Z,7.97
2023-12-30T13:59:20.171Z,8.01
2023-12-30T14:01:47.010Z,8.05
2023-12-30T14:04:17.477Z,8.13
2023-12-30T14:06:45.081Z,8.16
2023-12-30T14:09:31.555Z,8.22
2023-12-30T14:12:03.060Z,8.24
2023-12-30T14:14:39.818Z,8.24
2023-12-30T14:17:06.552Z,8.21
2023-12-30T14:19:33.019Z,8.25
2023-12-30T14:21:59.830Z,8.24
2023-12-30T14:24:26.286Z,8.21
2023-12-30T14:26:52.743Z,8.17
2023-12-30T14:29:19.835Z,8.13
2023-12-30T14:31:46.394Z,8.06
2023-12-30T14:34:13.144Z,8.06
2023-12-30T14:36:39.793Z,7.99
2023-12-30T14:39:10.143Z,7.94
2023-12-30T14:41:38.246Z,7.89
2023-12-30T14:44:04.780Z,7.83
2023-12-30T14:46:31.550Z,7.83
2023-12-30T14:48:59.292Z,7.75
2023-12-30T14:51:26.860Z,7.68
2023-12-30T14:53:53.305Z,7.62
2023-12-30T14:56:21.796Z,7.57
2023-12-30T14:58:49.019Z,7.53
2023-12-30T15:01:15.842Z,7.47
2023-12-30T15:03:42.773Z,7.40
2023-12-30T15:06:09.418Z,7.35
2023-12-30T15:08:36.165Z,7.31
2023-12-30T15:11:02.677Z,7.24
2023-12-30T15:13:29.253Z,7.17
2023-12-30T15:15:55.755Z,7.07
2023-12-30T15:18:22.661Z,6.99
2023-12-30T15:20:49.434Z,6.90
2023-12-30T15:23:15.955Z,6.83
2023-12-30T15:25:42.403Z,6.70
2023-12-30T15:28:10.297Z,6.55
2023-12-30T15:30:36.865Z,6.45
2023-12-30T15:33:04.158Z,6.41
2023-12-30T15:35:31.603Z,6.31
2023-12-30T15:37:59.026Z,6.21
2023-12-30T15:40:25.588Z,6.12
2023-12-30T15:42:53.683Z,6.08
2023-12-30T15:45:23.009Z,5.98
2023-12-30T15:47:49.875Z,5.93
2023-12-30T15:50:16.610Z,5.88
2023-12-30T15:52:43.118Z,5.84
2023-12-30T15:55:09.890Z,5.79
2023-12-30T15:57:36.362Z,5.76
2023-12-30T16:00:06.355Z,5.78
2023-12-30T16:02:32.827Z,5.77
2023-12-30T16:04:59.413Z,5.73
2023-12-30T16:07:26.550Z,5.71
2023-12-30T16:09:54.325Z,5.60
2023-12-30T16:12:20.897Z,5.54
2023-12-30T16:14:47.482Z,5.46
2023-12-30T16:17:14.318Z,5.39
2023-12-30T16:19:41.346Z,5.30
2023-12-30T16:22:07.971Z,5.24
2023-12-30T16:24:34.945Z,5.14
2023-12-30T16:27:02.032Z,5.06
2023-12-30T16:29:28.468Z,4.99
2023-12-30T16:31:57.714Z,4.97
2023-12-30T16:34:25.228Z,4.95
2023-12-30T16:36:51.710Z,4.89
2023-12-30T16:39:18.926Z,4.81
2023-12-30T16:41:45.490Z,4.75
2023-12-30T16:44:12.505Z,4.71
2023-12-30T16:46:39.764Z,4.70
2023-12-30T16:49:06.510Z,4.69
2023-12-30T16:51:34.599Z,4.68
2023-12-30T16:54:01.042Z,4.64
2023-12-30T16:56:27.767Z,4.59
2023-12-30T16:58:54.310Z,4.64
2023-12-30T17:01:21.061Z,4.65
2023-12-30T17:03:47.752Z,4.60
2023-12-30T17:06:15.589Z,4.58
2023-12-30T17:08:42.114Z,4.57
2023-12-30T17:11:09.161Z,4.53
2023-12-30T17:13:43.002Z,4.44
2023-12-30T17:16:16.748Z,4.38
2023-12-30T17:18:43.346Z,4.29
2023-12-30T17:21:09.921Z,4.22
2023-12-30T17:23:36.729Z,4.20
2023-12-30T17:26:03.802Z,4.16
2023-12-30T17:28:30.303Z,4.09
2023-12-30T17:30:56.824Z,4.02
2023-12-30T17:33:23.410Z,3.95
2023-12-30T17:35:50.151Z,3.91
2023-12-30T17:38:16.673Z,3.85
2023-12-30T17:40:43.239Z,3.84
2023-12-30T17:43:09.737Z,3.83
2023-12-30T17:45:36.379Z,3.82
2023-12-30T17:48:03.739Z,3.79
2023-12-30T17:50:30.528Z,3.74
2023-12-30T17:52:56.950Z,3.70
2023-12-30T17:55:23.420Z,3.62
2023-12-30T17:57:50.143Z,3.59
2023-12-30T18:00:17.020Z,3.52
2023-12-30T18:02:43.907Z,3.52
2023-12-30T18:05:10.572Z,3.52
2023-12-30T18:07:37.141Z,3.58
2023-12-30T18:10:04.263Z,3.57
2023-12-30T18:12:30.996Z,3.55
2023-12-30T18:14:57.637Z,3.55
2023-12-30T18:17:24.228Z,3.52
2023-12-30T18:19:50.828Z,3.53
2023-12-30T18:22:17.350Z,3.55
2023-12-30T18:24:43.794Z,3.57
2023-12-30T18:27:10.781Z,3.54
2023-12-30T18:29:37.250Z,3.55
2023-12-30T18:32:03.917Z,3.52
2023-12-30T18:34:30.750Z,3.52
2023-12-30T18:36:57.641Z,3.49
2023-12-30T18:39:24.522Z,3.50
2023-12-30T18:41:50.974Z,3.46
2023-12-30T18:44:17.680Z,3.47
2023-12-30T18:46:44.127Z,3.44
2023-12-30T18:49:10.709Z,3.43
2023-12-30T18:51:37.165Z,3.42
2023-12-30T18:54:03.750Z,3.45
2023-12-30T18:56:31.267Z,3.47
2023-12-30T18:58:57.769Z,3.47
2023-12-30T19:01:24.306Z,3.48
2023-12-30T19:03:54.034Z,3.43
2023-12-30T19:06:21.012Z,3.40
2023-12-30T19:08:47.490Z,3.37
2023-12-30T19:11:13.924Z,3.29
2023-12-30T19:13:40.434Z,3.25
2023-12-30T19:16:07.211Z,3.26
2023-12-30T19:18:34.037Z,3.28
2023-12-30T19:21:01.823Z,3.27
2023-12-30T19:23:28.480Z,3.27
2023-12-30T19:25:55.042Z,3.25
2023-12-30T19:28:21.811Z,3.25
2023-12-30T19:30:48.470Z,3.23
2023-12-30T19:33:15.419Z,3.21
2023-12-30T19:35:42.587Z,3.22
2023-12-30T19:38:09.553Z,3.20
2023-12-30T19:40:36.090Z,3.18
2023-12-30T19:43:04.607Z,3.17
2023-12-30T19:45:31.398Z,3.16
2023-12-30T19:47:58.500Z,3.14
2023-12-30T19:50:25.016Z,3.12
2023-12-30T19:52:52.014Z,3.10
2023-12-30T19:55:18.777Z,3.04
2023-12-30T19:57:45.608Z,2.99
2023-12-30T20:00:14.426Z,2.95
2023-12-30T20:02:44.404Z,2.93
2023-12-30T20:05:14.309Z,2.93
2023-12-30T20:07:41.417Z,2.92
2023-12-30T20:10:15.041Z,2.89
2023-12-30T20:12:41.642Z,2.86
2023-12-30T20:15:08.391Z,2.82
2023-12-30T20:17:35.404Z,2.76
2023-12-30T20:20:03.728Z,2.73
2023-12-30T20:22:30.335Z,2.69
2023-12-30T20:24:56.782Z,2.63
2023-12-30T20:27:23.202Z,2.60
2023-12-30T20:29:50.499Z,2.55
2023-12-30T20:32:17.099Z,2.53
2023-12-30T20:34:43.578Z,2.52
2023-12-30T20:37:10.271Z,2.48
2023-12-30T20:39:37.257Z,2.48
2023-12-30T20:42:04.496Z,2.48
2023-12-30T20:44:31.077Z,2.46
2023-12-30T20:46:57.712Z,2.47
2023-12-30T20:49:25.401Z,2.46
2023-12-30T20:51:51.997Z,2.49
2023-12-30T20:54:18.545Z,2.47
2023-12-30T20:56:48.577Z,2.46
2023-12-30T20:59:21.380Z,2.42
2023-12-30T21:01:49.347Z,2.39
2023-12-30T21:04:16.924Z,2.35
2023-12-30T21:06:43.756Z,2.35
2023-12-30T21:09:10.921Z,2.33
2023-12-30T21:11:38.052Z,2.32
2023-12-30T21:14:05.402Z,2.31
2023-12-30T21:16:31.891Z,2.30
2023-12-30T21:18:58.703Z,2.30
2023-12-30T21:21:25.284Z,2.28
2023-12-30T21:23:51.732Z,2.24
2023-12-30T21:26:20.997Z,2.20
2023-12-30T21:28:47.564Z,2.18
2023-12-30T21:31:14.501Z,2.16
2023-12-30T21:33:41.334Z,2.12
2023-12-30T21:36:08.290Z,2.11
2023-12-30T21:38:36.676Z,2.05
2023-12-30T21:41:05.556Z,2.04
2023-12-30T21:43:32.009Z,2.01
2023-12-30T21:45:59.339Z,1.97
2023-12-30T21:48:25.886Z,1.98
2023-12-30T21:50:52.450Z,1.96
2023-12-30T21:53:18.943Z,1.93
2023-12-30T21:55:45.558Z,1.88
2023-12-30T21:58:12.347Z,1.88
2023-12-30T22:00:40.896Z,1.89
2023-12-30T22:03:07.887Z,1.90
2023-12-30T22:05:36.250Z,1.89
2023-12-30T22:08:02.946Z,1.89
2023-12-30T22:10:29.532Z,1.87
2023-12-30T22:12:57.365Z,1.86
2023-12-30T22:15:24.376Z,1.85
2023-12-30T22:17:50.918Z,1.88
2023-12-30T22:20:17.438Z,1.90
2023-12-30T22:22:43.984Z,1.90
2023-12-30T22:25:10.542Z,1.91
2023-12-30T22:27:37.024Z,1.92
2023-12-30T22:30:03.810Z,1.92
2023-12-30T22:32:31.011Z,1.93
2023-12-30T22:34:58.860Z,1.93
2023-12-30T22:37:25.499Z,1.93
2023-12-30T22:39:51.972Z,1.94
2023-12-30T22:42:18.519Z,1.97
2023-12-30T22:44:44.963Z,1.97
2023-12-30T22:47:11.453Z,1.98
2023-12-30T22:49:39.032Z,1.99
2023-12-30T22:52:05.946Z,1.99
2023-12-30T22:54:32.556Z,2.00
2023-12-30T22:56:59.103Z,2.02
2023-12-30T22:59:25.539Z,2.04
2023-12-30T23:01:52.028Z,2.08
2023-12-30T23:04:18.564Z,2.12
2023-12-30T23:06:45.091Z,2.12
2023-12-30T23:09:11.560Z,2.13
2023-12-30T23:11:38.062Z,2.17
2023-12-30T23:14:04.920Z,2.15
2023-12-30T23:16:31.409Z,2.15
2023-12-30T23:18:58.669Z,2.14
2023-12-30T23:21:34.580Z,2.12
2023-12-30T23:24:01.052Z,2.12
2023-12-30T23:26:27.657Z,2.11
2023-12-30T23:28:54.834Z,2.09
2023-12-30T23:31:21.612Z,2.09
2023-12-30T23:33:48.329Z,2.09
2023-12-30T23:36:14.803Z,2.13
2023-12-30T23:38:41.312Z,2.12
2023-12-30T23:41:07.981Z,2.11
2023-12-30T23:43:34.523Z,2.09
2023-12-30T23:46:00.984Z,2.07
2023-12-30T23:48:27.489Z,2.06
2023-12-30T23:50:54.075Z,2.02
2023-12-30T23:53:20.483Z,2.00
2023-12-30T23:55:48.695Z,1.99
2023-12-30T23:58:15.353Z,2.00
